createdAt,value
2022-11-21T00:00:45.005Z,10.90
2022-11-21T00:01:48.715Z,14.90
2022-11-21T00:02:52.891Z,14.78
2022-11-21T00:03:54.977Z,14.90
2022-11-21T00:04:57.408Z,12.50
2022-11-21T00:06:00.967Z,13.40
2022-11-21T00:07:02.917Z,13.60
2022-11-21T00:08:05.191Z,13.90
2022-11-21T00:09:07.066Z,12.80
2022-11-21T00:10:09.575Z,11.70
2022-11-21T00:11:11.383Z,13.56
2022-11-21T00:12:17.393Z,14.67
2022-11-21T00:13:20.132Z,15.20
2022-11-21T00:14:22.067Z,13.10
2022-11-21T00:15:25.655Z,15.00
2022-11-21T00:16:27.604Z,11.00
2022-11-21T00:17:29.202Z,13.11
2022-11-21T00:18:32.764Z,13.22
2022-11-21T00:19:35.017Z,14.80
2022-11-21T00:20:37.822Z,15.30
2022-11-21T00:21:39.946Z,13.27
2022-11-21T00:22:41.849Z,16.00
2022-11-21T00:23:44.765Z,15.00
2022-11-21T00:24:50.520Z,11.80
2022-11-21T00:25:51.005Z,12.90
2022-11-21T00:26:52.874Z,15.80
2022-11-21T00:27:54.520Z,14.78
2022-11-21T00:28:56.249Z,14.44
2022-11-21T00:29:57.996Z,13.89
2022-11-21T00:30:59.907Z,15.44
2022-11-21T00:32:01.862Z,13.56
2022-11-21T00:33:03.877Z,15.00
2022-11-21T00:34:05.704Z,12.80
2022-11-21T00:35:08.006Z,14.22
2022-11-21T00:36:10.531Z,16.20
2022-11-21T00:37:12.510Z,15.40
2022-11-21T00:38:15.194Z,13.67
2022-11-21T00:39:16.997Z,15.90
2022-11-21T00:40:19.054Z,12.50
2022-11-21T00:41:20.748Z,14.00
2022-11-21T00:42:22.414Z,12.78
2022-11-21T00:43:27.209Z,14.00
2022-11-21T00:44:29.207Z,13.67
2022-11-21T00:45:31.141Z,13.70
2022-11-21T00:46:34.097Z,13.89
2022-11-21T00:47:36.134Z,14.00
2022-11-21T00:48:38.569Z,14.00
2022-11-21T00:49:40.573Z,15.50
2022-11-21T00:50:43.452Z,14.60
2022-11-21T00:51:45.443Z,14.10
2022-11-21T00:52:47.328Z,13.44
2022-11-21T00:53:50.130Z,13.56
2022-11-21T00:54:52.335Z,13.50
2022-11-21T00:55:54.093Z,14.78
2022-11-21T00:56:55.974Z,13.89
2022-11-21T00:57:57.699Z,14.22
2022-11-21T00:58:59.697Z,15.11
2022-11-21T01:00:01.925Z,15.90
2022-11-21T01:01:12.543Z,16.22
2022-11-21T01:02:14.896Z,13.30
2022-11-21T01:03:16.721Z,14.90
2022-11-21T01:04:19.103Z,13.50
2022-11-21T01:05:24.830Z,16.40
2022-11-21T01:06:27.649Z,14.50
2022-11-21T01:07:29.511Z,9.50
2022-11-21T01:08:32.287Z,13.20
2022-11-21T01:09:34.869Z,13.10
2022-11-21T01:10:37.418Z,6.80
2022-11-21T01:11:39.346Z,14.80
2022-11-21T01:12:41.552Z,13.80
2022-11-21T01:13:44.208Z,14.33
2022-11-21T01:14:46.531Z,14.36
2022-11-21T01:15:48.379Z,13.56
2022-11-21T01:16:50.551Z,14.10
2022-11-21T01:17:52.425Z,16.44
2022-11-21T01:18:55.450Z,15.11
2022-11-21T01:19:57.302Z,16.10
2022-11-21T01:21:01.934Z,13.67
2022-11-21T01:22:03.894Z,14.10
2022-11-21T01:23:05.952Z,14.00
2022-11-21T01:24:12.811Z,13.60
2022-11-21T01:25:16.132Z,13.20
2022-11-21T01:26:22.296Z,12.50
2022-11-21T01:27:24.406Z,14.00
2022-11-21T01:28:26.149Z,14.89
2022-11-21T01:29:28.171Z,14.00
2022-11-21T01:30:30.059Z,13.20
2022-11-21T01:31:32.292Z,13.33
2022-11-21T01:32:34.769Z,15.30
2022-11-21T01:33:39.929Z,13.60
2022-11-21T01:34:41.899Z,13.30
2022-11-21T01:35:44.871Z,14.67
2022-11-21T01:36:47.409Z,11.70
2022-11-21T01:37:49.826Z,14.20
2022-11-21T01:38:54.026Z,14.90
2022-11-21T01:39:55.908Z,13.60
2022-11-21T01:40:57.824Z,15.20
2022-11-21T01:41:59.499Z,0.22
2022-11-21T01:43:05.342Z,13.33
2022-11-21T01:44:19.690Z,14.00
2022-11-21T01:45:48.236Z,14.20
2022-11-21T01:46:51.921Z,15.60
2022-11-21T01:47:54.386Z,14.90
2022-11-21T01:49:05.677Z,13.50
2022-11-21T01:50:12.824Z,12.60
2022-11-21T01:51:21.872Z,14.10
2022-11-21T01:52:27.407Z,14.10
2022-11-21T01:53:29.810Z,13.00
2022-11-21T01:55:51.466Z,14.10
2022-11-21T01:57:02.611Z,15.20
2022-11-21T01:58:04.780Z,14.30
2022-11-21T01:59:09.241Z,14.30
2022-11-21T02:00:20.667Z,14.30
2022-11-21T02:01:23.827Z,14.00
2022-11-21T02:02:32.222Z,14.64
2022-11-21T02:03:37.639Z,13.80
2022-11-21T02:04:42.796Z,3.80
2022-11-21T02:05:45.413Z,13.10
2022-11-21T02:06:48.729Z,11.20
2022-11-21T02:07:53.740Z,14.00
2022-11-21T02:08:58.186Z,13.90
2022-11-21T02:10:02.672Z,14.70
2022-11-21T02:11:32.441Z,16.20
2022-11-21T02:12:52.848Z,14.80
2022-11-21T02:13:55.595Z,13.40
2022-11-21T02:14:58.735Z,14.80
2022-11-21T02:16:02.341Z,15.20
2022-11-21T02:17:07.352Z,14.60
2022-11-21T02:18:09.401Z,16.60
2022-11-21T02:19:20.578Z,14.89
2022-11-21T02:20:25.113Z,14.90
2022-11-21T02:21:57.035Z,16.60
2022-11-21T02:23:15.063Z,13.90
2022-11-21T02:24:29.952Z,14.50
2022-11-21T02:25:35.560Z,14.90
2022-11-21T02:26:38.232Z,12.70
2022-11-21T02:27:40.534Z,15.60
2022-11-21T02:28:44.188Z,11.40
2022-11-21T02:29:46.763Z,15.30
2022-11-21T02:30:49.180Z,16.40
2022-11-21T02:31:51.057Z,14.00
2022-11-21T02:32:53.082Z,14.56
2022-11-21T02:33:54.866Z,14.20
2022-11-21T02:34:56.690Z,13.67
2022-11-21T02:36:00.590Z,13.60
2022-11-21T02:37:02.478Z,13.20
2022-11-21T02:38:26.696Z,15.22
2022-11-21T02:39:32.207Z,16.60
2022-11-21T02:40:37.948Z,12.30
2022-11-21T02:41:49.284Z,15.00
2022-11-21T02:43:09.525Z,13.80
2022-11-21T02:44:22.484Z,13.10
2022-11-21T02:45:28.263Z,15.80
2022-11-21T02:46:30.462Z,15.10
2022-11-21T02:47:34.993Z,13.30
2022-11-21T02:48:38.176Z,15.90
2022-11-21T02:49:46.623Z,13.20
2022-11-21T02:50:48.470Z,14.80
2022-11-21T02:51:50.225Z,14.11
2022-11-21T02:52:52.216Z,16.00
2022-11-21T02:53:54.061Z,15.22
2022-11-21T02:54:56.307Z,14.78
2022-11-21T02:55:58.585Z,15.00
2022-11-21T02:57:02.908Z,14.00
2022-11-21T02:58:05.977Z,14.50
2022-11-21T02:59:08.337Z,15.09
2022-11-21T03:00:11.525Z,14.73
2022-11-21T03:01:13.964Z,14.50
2022-11-21T03:02:16.322Z,14.20
2022-11-21T03:03:18.608Z,15.40
2022-11-21T03:04:20.402Z,14.40
2022-11-21T03:05:23.241Z,12.89
2022-11-21T03:06:25.153Z,14.70
2022-11-21T03:07:27.568Z,14.89
2022-11-21T03:08:30.237Z,14.60
2022-11-21T03:09:32.112Z,14.80
2022-11-21T03:10:35.064Z,14.89
2022-11-21T03:11:36.798Z,13.30
2022-11-21T03:12:40.194Z,14.44
2022-11-21T03:13:42.454Z,14.00
2022-11-21T03:14:44.786Z,0.60
2022-11-21T03:15:47.492Z,14.70
2022-11-21T03:16:49.551Z,15.36
2022-11-21T03:17:51.187Z,12.89
2022-11-21T03:18:52.819Z,14.89
2022-11-21T03:19:54.978Z,14.78
2022-11-21T03:20:57.466Z,12.60
2022-11-21T03:21:59.331Z,13.50
2022-11-21T03:23:01.539Z,13.00
2022-11-21T03:24:04.200Z,14.40
2022-11-21T03:25:06.605Z,13.90
2022-11-21T03:26:10.293Z,15.00
2022-11-21T03:27:12.304Z,14.40
2022-11-21T03:28:14.134Z,16.00
2022-11-21T03:29:16.002Z,14.44
2022-11-21T03:30:19.993Z,14.70
2022-11-21T03:31:22.371Z,13.60
2022-11-21T03:32:24.395Z,15.30
2022-11-21T03:33:26.162Z,16.33
2022-11-21T03:34:28.291Z,14.00
2022-11-21T03:35:30.722Z,14.60
2022-11-21T03:36:32.743Z,14.10
2022-11-21T03:37:34.399Z,15.22
2022-11-21T03:38:36.040Z,15.89
2022-11-21T03:39:37.672Z,15.33
2022-11-21T03:40:39.565Z,15.67
2022-11-21T03:41:41.912Z,15.56
2022-11-21T03:42:44.003Z,16.20
2022-11-21T03:43:45.756Z,15.11
2022-11-21T03:44:47.419Z,13.67
2022-11-21T03:45:49.743Z,15.33
2022-11-21T03:46:51.513Z,11.40
2022-11-21T03:47:53.250Z,15.67
2022-11-21T03:48:55.607Z,14.89
2022-11-21T03:49:57.613Z,15.30
2022-11-21T03:50:59.518Z,16.00
2022-11-21T03:52:01.400Z,14.89
2022-11-21T03:53:03.153Z,15.33
2022-11-21T03:54:05.911Z,15.22
2022-11-21T03:55:08.125Z,16.18
2022-11-21T03:56:10.644Z,16.30
2022-11-21T03:57:12.531Z,14.70
2022-11-21T03:58:14.180Z,14.78
2022-11-21T03:59:16.531Z,11.78
2022-11-21T04:00:19.083Z,14.60
2022-11-21T04:01:21.903Z,15.30
2022-11-21T04:02:23.875Z,16.60
2022-11-21T04:03:25.898Z,15.90
2022-11-21T04:04:27.844Z,15.44
2022-11-21T04:05:29.817Z,14.50
2022-11-21T04:06:31.866Z,17.78
2022-11-21T04:07:33.698Z,16.89
2022-11-21T04:08:35.768Z,15.67
2022-11-21T04:09:37.442Z,13.89
2022-11-21T04:10:39.276Z,16.33
2022-11-21T04:11:40.925Z,15.44
2022-11-21T04:12:42.685Z,14.89
2022-11-21T04:13:44.521Z,14.00
2022-11-21T04:14:46.730Z,16.00
2022-11-21T04:15:49.112Z,15.60
2022-11-21T04:16:50.932Z,16.20
2022-11-21T04:17:52.795Z,14.33
2022-11-21T04:18:55.187Z,15.00
2022-11-21T04:19:57.124Z,15.00
2022-11-21T04:21:01.883Z,15.90
2022-11-21T04:22:04.043Z,14.00
2022-11-21T04:23:06.738Z,14.20
2022-11-21T04:24:08.635Z,12.10
2022-11-21T04:25:11.317Z,15.00
2022-11-21T04:26:15.297Z,15.10
2022-11-21T04:27:17.222Z,14.90
2022-11-21T04:28:19.573Z,12.78
2022-11-21T04:29:21.382Z,10.50
2022-11-21T04:30:23.392Z,16.00
2022-11-21T04:31:25.128Z,10.22
2022-11-21T04:32:26.857Z,14.78
2022-11-21T04:33:29.062Z,14.70
2022-11-21T04:34:31.265Z,16.44
2022-11-21T04:35:33.382Z,14.30
2022-11-21T04:36:35.827Z,14.40
2022-11-21T04:37:38.913Z,15.30
2022-11-21T04:38:41.161Z,14.70
2022-11-21T04:39:42.925Z,15.40
2022-11-21T04:40:44.708Z,15.89
2022-11-21T04:41:46.897Z,14.67
2022-11-21T04:42:48.688Z,15.00
2022-11-21T04:43:51.033Z,14.44
2022-11-21T04:44:52.857Z,13.70
2022-11-21T04:45:54.613Z,15.11
2022-11-21T04:46:59.911Z,13.44
2022-11-21T04:48:00.398Z,13.60
2022-11-21T04:49:03.445Z,14.67
2022-11-21T04:50:09.001Z,14.70
2022-11-21T04:51:10.795Z,12.90
2022-11-21T04:52:12.794Z,15.89
2022-11-21T04:53:14.446Z,16.11
2022-11-21T04:54:16.567Z,14.67
2022-11-21T04:55:20.708Z,16.10
2022-11-21T04:56:22.927Z,14.30
2022-11-21T06:16:23.549Z,21.70
2022-11-21T06:17:25.470Z,18.70
2022-11-21T06:18:29.973Z,16.00
2022-11-21T06:19:32.164Z,19.10
2022-11-21T06:20:33.986Z,17.20
2022-11-21T06:21:35.744Z,22.67
2022-11-21T06:22:37.660Z,22.89
2022-11-21T06:23:39.984Z,23.22
2022-11-21T06:24:42.150Z,21.30
2022-11-21T06:25:44.088Z,15.90
2022-11-21T06:26:45.831Z,18.67
2022-11-21T06:27:47.877Z,17.67
2022-11-21T06:28:50.080Z,14.11
2022-11-21T06:29:52.204Z,18.50
2022-11-21T06:30:54.651Z,11.30
2022-11-21T06:31:57.036Z,19.20
2022-11-21T06:32:59.890Z,17.10
2022-11-21T06:34:02.157Z,16.00
2022-11-21T06:35:04.566Z,13.90
2022-11-21T06:36:09.422Z,16.30
2022-11-21T06:37:11.925Z,14.60
2022-11-21T06:38:14.368Z,17.90
2022-11-21T06:39:16.086Z,17.50
2022-11-21T06:40:18.651Z,18.30
2022-11-21T06:41:22.747Z,18.33
2022-11-21T06:42:24.954Z,13.70
2022-11-21T06:43:26.634Z,13.60
2022-11-21T06:44:28.749Z,19.00
2022-11-21T06:45:32.089Z,12.00
2022-11-21T06:46:34.611Z,17.09
2022-11-21T06:47:36.517Z,16.00
2022-11-21T06:48:39.547Z,13.44
2022-11-21T06:49:41.578Z,17.00
2022-11-21T06:50:43.560Z,15.90
2022-11-21T06:51:46.447Z,19.56
2022-11-21T06:52:49.524Z,17.30
2022-11-21T06:53:57.398Z,15.30
2022-11-21T06:54:59.421Z,14.60
2022-11-21T06:56:02.742Z,16.33
2022-11-21T06:57:05.083Z,16.50
2022-11-21T06:58:06.998Z,15.40
2022-11-21T06:59:09.302Z,13.40
2022-11-21T07:00:13.444Z,14.60
2022-11-21T07:01:15.582Z,15.10
2022-11-21T07:02:17.595Z,14.40
2022-11-21T07:03:19.455Z,16.11
2022-11-21T07:04:21.390Z,15.00
2022-11-21T07:05:23.671Z,15.11
2022-11-21T07:06:25.661Z,15.30
2022-11-21T07:07:28.555Z,15.56
2022-11-21T07:08:32.564Z,14.40
2022-11-21T07:09:34.426Z,13.10
2022-11-21T07:10:36.365Z,15.60
2022-11-21T07:11:37.996Z,14.89
2022-11-21T07:12:39.749Z,13.44
2022-11-21T07:13:42.842Z,14.33
2022-11-21T07:14:45.472Z,14.55
2022-11-21T07:15:49.539Z,13.70
2022-11-21T07:16:51.592Z,12.60
2022-11-21T07:17:53.258Z,14.22
2022-11-21T07:18:55.066Z,12.56
2022-11-21T07:19:57.921Z,12.67
2022-11-21T07:21:02.756Z,14.00
2022-11-21T07:22:05.199Z,15.90
2022-11-21T07:23:07.994Z,14.20
2022-11-21T07:24:10.643Z,16.00
2022-11-21T07:25:12.440Z,14.70
2022-11-21T07:26:15.466Z,13.30
2022-11-21T07:27:17.680Z,12.10
2022-11-21T07:28:20.029Z,12.90
2022-11-21T07:29:21.897Z,11.60
2022-11-21T07:30:23.749Z,13.11
2022-11-21T07:31:26.225Z,13.00
2022-11-21T07:32:28.320Z,6.90
2022-11-21T07:33:30.822Z,12.80
2022-11-21T07:34:32.633Z,9.00
2022-11-21T07:35:35.609Z,15.33
2022-11-21T07:36:37.872Z,15.10
2022-11-21T07:37:39.578Z,14.10
2022-11-21T07:38:42.556Z,13.22
2022-11-21T07:39:45.210Z,12.30
2022-11-21T07:40:47.264Z,13.30
2022-11-21T07:41:48.883Z,14.22
2022-11-21T07:42:50.651Z,13.89
2022-11-21T07:43:53.147Z,13.67
2022-11-21T07:44:55.016Z,13.50
2022-11-21T07:45:56.739Z,14.00
2022-11-21T07:46:59.020Z,13.67
2022-11-21T07:48:02.716Z,15.40
2022-11-21T07:49:04.638Z,12.80
2022-11-21T07:50:10.790Z,14.90
2022-11-21T07:51:12.822Z,15.40
2022-11-21T07:52:14.540Z,16.33
2022-11-21T07:53:17.503Z,15.11
2022-11-21T07:54:20.113Z,14.73
2022-11-21T07:55:22.649Z,14.40
2022-11-21T07:56:24.532Z,13.80
2022-11-21T07:57:26.843Z,13.33
2022-11-21T07:58:28.623Z,14.30
2022-11-21T07:59:31.009Z,15.67
2022-11-21T08:00:35.742Z,14.40
2022-11-21T08:01:42.598Z,15.10
2022-11-21T08:02:42.640Z,13.50
2022-11-21T08:03:45.657Z,14.50
2022-11-21T08:04:47.908Z,9.45
2022-11-21T08:05:49.684Z,14.10
2022-11-21T08:06:52.429Z,14.44
2022-11-21T08:07:54.196Z,14.70
2022-11-21T08:08:56.120Z,13.44
2022-11-21T08:09:58.659Z,14.78
2022-11-21T08:11:06.547Z,13.70
2022-11-21T08:12:09.239Z,14.10
2022-11-21T08:13:12.615Z,14.60
2022-11-21T08:14:15.264Z,14.20
2022-11-21T08:15:17.305Z,14.30
2022-11-21T08:16:19.082Z,13.70
2022-11-21T08:17:20.815Z,15.00
2022-11-21T08:18:22.490Z,14.67
2022-11-21T08:19:24.324Z,13.78
2022-11-21T08:20:26.632Z,14.22
2022-11-21T08:21:28.952Z,14.80
2022-11-21T08:22:31.197Z,15.30
2022-11-21T08:23:33.083Z,14.90
2022-11-21T08:24:35.057Z,13.70
2022-11-21T08:25:38.433Z,14.44
2022-11-21T08:26:40.748Z,15.80
2022-11-21T08:27:43.098Z,16.00
2022-11-21T08:28:45.740Z,9.30
2022-11-21T08:29:47.755Z,14.00
2022-11-21T08:30:49.662Z,15.20
2022-11-21T08:31:51.531Z,11.78
2022-11-21T08:32:54.401Z,16.00
2022-11-21T08:33:56.501Z,14.09
2022-11-21T08:34:59.124Z,12.10
2022-11-21T08:36:07.302Z,12.00
2022-11-21T08:37:09.930Z,10.60
2022-11-21T08:38:11.822Z,14.30
2022-11-21T08:39:13.617Z,14.11
2022-11-21T08:40:17.771Z,14.10
2022-11-21T08:41:19.958Z,13.00
2022-11-21T08:42:22.359Z,12.50
2022-11-21T08:43:24.344Z,11.50
2022-11-21T08:44:26.389Z,12.11
2022-11-21T08:45:29.172Z,12.40
2022-11-21T08:46:31.776Z,13.90
2022-11-21T08:47:33.557Z,10.00
2022-11-21T08:48:35.852Z,11.56
2022-11-21T08:49:38.743Z,11.80
2022-11-21T08:50:40.690Z,13.70
2022-11-21T08:51:42.391Z,13.89
2022-11-21T08:52:44.339Z,14.33
2022-11-21T08:53:46.070Z,13.33
2022-11-21T08:54:48.322Z,14.78
2022-11-21T08:55:50.115Z,13.60
2022-11-21T08:56:52.935Z,14.89
2022-11-21T08:57:55.920Z,13.70
2022-11-21T08:58:58.431Z,14.00
2022-11-21T09:00:00.163Z,13.20
2022-11-21T09:01:02.186Z,14.67
2022-11-21T09:02:04.080Z,13.78
2022-11-21T09:03:05.982Z,11.78
2022-11-21T09:04:08.657Z,8.80
2022-11-21T09:05:10.350Z,13.40
2022-11-21T09:06:14.201Z,12.10
2022-11-21T09:07:16.444Z,13.60
2022-11-21T09:08:18.240Z,12.80
2022-11-21T09:09:25.080Z,13.33
2022-11-21T09:10:25.919Z,14.60
2022-11-21T09:11:27.904Z,14.20
2022-11-21T09:12:30.744Z,13.90
2022-11-21T09:13:33.598Z,14.73
2022-11-21T09:14:35.390Z,15.20
2022-11-21T09:15:37.557Z,4.44
2022-11-21T09:16:39.374Z,12.70
2022-11-21T09:17:41.127Z,12.44
2022-11-21T09:18:43.631Z,16.00
2022-11-21T09:19:45.306Z,14.90
2022-11-21T09:20:47.241Z,14.78
2022-11-21T09:21:50.151Z,13.78
2022-11-21T09:22:52.017Z,14.09
2022-11-21T09:23:53.637Z,12.33
2022-11-21T09:24:55.289Z,10.22
2022-11-21T09:25:58.886Z,16.11
2022-11-21T09:27:00.978Z,26.90
2022-11-21T09:28:04.643Z,40.22
2022-11-21T09:29:06.616Z,65.40
2022-11-21T09:30:11.223Z,55.70
2022-11-21T09:31:13.558Z,32.90
2022-11-21T09:32:15.452Z,25.30
2022-11-21T09:33:17.167Z,21.78
2022-11-21T09:34:19.608Z,20.78
2022-11-21T09:35:21.325Z,19.90
2022-11-21T09:36:23.026Z,19.11
2022-11-21T09:37:25.021Z,18.44
2022-11-21T09:38:27.327Z,17.20
2022-11-21T09:39:29.558Z,18.40
2022-11-21T09:40:33.664Z,16.40
2022-11-21T09:42:14.034Z,14.90
2022-11-21T09:43:38.003Z,10.20
2022-11-21T09:45:00.376Z,13.50
2022-11-21T09:46:12.023Z,12.60
2022-11-21T09:47:23.381Z,11.80
2022-11-21T09:48:33.104Z,14.10
2022-11-21T09:49:39.484Z,14.50
2022-11-21T09:50:49.370Z,14.70
2022-11-21T09:51:50.263Z,15.20
2022-11-21T09:53:03.472Z,15.50
2022-11-21T09:54:09.021Z,14.10
2022-11-21T09:55:31.701Z,11.60
2022-11-21T09:56:37.387Z,11.80
2022-11-21T09:57:39.333Z,15.40
2022-11-21T09:58:45.257Z,14.56
2022-11-21T09:59:48.727Z,12.10
2022-11-21T10:00:52.525Z,12.70
2022-11-21T10:01:55.129Z,14.30
2022-11-21T10:02:58.671Z,13.30
2022-11-21T10:04:01.657Z,13.60
2022-11-21T10:05:06.252Z,13.00
2022-11-21T10:06:23.513Z,11.70
2022-11-21T10:09:20.042Z,10.80
2022-11-21T10:10:50.595Z,14.00
2022-11-21T10:12:05.355Z,13.50
2022-11-21T10:13:11.376Z,13.70
2022-11-21T10:14:52.775Z,12.50
2022-11-21T10:16:04.545Z,13.20
2022-11-21T10:17:25.741Z,12.90
2022-11-21T11:50:34.589Z,14.60
2022-11-21T11:51:42.564Z,13.50
2022-11-21T11:53:17.365Z,15.00
2022-11-21T11:54:25.936Z,12.60
2022-11-21T11:55:40.732Z,12.90
2022-11-21T11:56:45.021Z,11.50
2022-11-21T11:57:50.584Z,12.30
2022-11-21T12:00:31.663Z,11.70
2022-11-21T12:01:40.199Z,8.40
2022-11-21T12:03:05.235Z,10.30
2022-11-21T12:04:16.125Z,6.00
2022-11-21T12:05:27.272Z,7.90
2022-11-21T12:07:10.629Z,6.80
2022-11-21T12:08:38.852Z,9.30
2022-11-21T12:08:54.001Z,11.20
2022-11-21T12:10:29.788Z,10.80
2022-11-21T12:11:50.885Z,7.30
2022-11-21T12:12:56.673Z,7.50
2022-11-21T12:14:02.252Z,8.50
2022-11-21T12:15:25.112Z,1.90
2022-11-21T12:16:29.237Z,8.70
2022-11-21T12:17:51.708Z,8.10
2022-11-21T12:19:09.657Z,8.30
2022-11-21T12:20:19.095Z,5.00
2022-11-21T12:21:22.259Z,8.50
2022-11-21T12:22:24.553Z,7.30
2022-11-21T12:23:30.252Z,8.10
2022-11-21T12:24:39.800Z,8.40
2022-11-21T12:25:55.603Z,7.40
2022-11-21T12:27:18.317Z,7.90
2022-11-21T12:28:24.829Z,8.00
2022-11-21T12:29:54.570Z,9.50
2022-11-21T12:31:05.968Z,9.30
2022-11-21T12:32:26.323Z,8.80
2022-11-21T12:33:32.006Z,9.70
2022-11-21T12:34:40.763Z,9.90
2022-11-21T12:36:04.721Z,8.60
2022-11-21T12:37:38.248Z,7.70
2022-11-21T12:38:53.102Z,5.60
2022-11-21T12:39:58.875Z,7.50
2022-11-21T12:41:21.432Z,7.20
2022-11-21T12:42:27.220Z,7.40
2022-11-21T12:43:42.107Z,5.70
2022-11-21T12:45:02.902Z,6.10
2022-11-21T12:46:20.931Z,6.50
2022-11-21T12:47:35.741Z,5.20
2022-11-21T12:49:04.389Z,5.60
2022-11-21T12:50:22.849Z,4.40
2022-11-21T12:51:50.043Z,5.00
2022-11-21T12:52:58.614Z,6.50
2022-11-21T12:54:16.237Z,6.00
2022-11-21T12:55:36.541Z,4.60
2022-11-21T12:56:42.759Z,5.90
2022-11-21T12:57:57.730Z,6.50
2022-11-21T12:59:01.954Z,5.00
2022-11-21T13:00:11.314Z,6.40
2022-11-21T13:01:21.407Z,7.50
2022-11-21T13:02:58.530Z,4.60
2022-11-21T13:04:07.238Z,6.80
2022-11-21T13:05:12.902Z,5.90
2022-11-21T13:06:31.688Z,7.70
2022-11-21T13:07:34.133Z,6.90
2022-11-21T13:08:38.803Z,6.50
2022-11-21T13:09:44.283Z,7.20
2022-11-21T13:10:50.003Z,7.90
2022-11-21T13:12:11.360Z,7.00
2022-11-21T13:13:23.378Z,7.20
2022-11-21T13:14:54.633Z,5.70
2022-11-21T13:16:07.611Z,8.60
2022-11-21T13:17:28.715Z,6.00
2022-11-21T13:18:37.089Z,7.30
2022-11-21T13:20:01.027Z,3.00
2022-11-21T13:21:04.971Z,5.00
2022-11-21T13:22:27.687Z,6.40
2022-11-21T13:23:42.197Z,7.30
2022-11-21T13:24:48.281Z,3.90
2022-11-21T13:25:50.797Z,5.40
2022-11-21T13:26:53.795Z,7.10
2022-11-21T13:28:14.521Z,8.00
2022-11-21T13:29:16.472Z,6.90
2022-11-21T13:30:21.488Z,7.50
2022-11-21T13:31:31.802Z,7.00
2022-11-21T13:32:52.652Z,7.50
2022-11-21T13:33:55.492Z,8.00
2022-11-21T13:34:57.757Z,7.10
2022-11-21T13:36:12.289Z,7.20
2022-11-21T13:37:17.980Z,7.90
2022-11-21T13:38:19.787Z,7.60
2022-11-21T13:39:28.665Z,7.78
2022-11-21T13:40:37.055Z,8.30
2022-11-21T13:41:48.265Z,8.10
2022-11-21T13:43:32.857Z,8.20
2022-11-21T13:44:35.210Z,6.40
2022-11-21T13:45:45.129Z,7.70
2022-11-21T13:48:19.924Z,5.80
2022-11-21T13:49:25.642Z,6.00
2022-11-21T13:50:43.353Z,6.40
2022-11-21T13:51:49.024Z,7.20
2022-11-21T13:54:27.288Z,7.10
2022-11-21T13:55:57.786Z,6.00
2022-11-21T13:57:16.303Z,7.30
2022-11-21T13:58:27.711Z,7.10
2022-11-21T13:59:49.030Z,7.00
2022-11-21T14:01:28.806Z,5.80
2022-11-21T14:02:52.823Z,6.10
2022-11-21T14:04:04.243Z,8.10
2022-11-21T14:05:39.119Z,7.80
2022-11-21T14:06:42.140Z,4.10
2022-11-21T14:07:45.040Z,7.90
2022-11-21T14:09:25.808Z,6.70
2022-11-21T14:10:33.468Z,7.70
2022-11-21T14:11:42.164Z,8.50
2022-11-21T14:12:47.769Z,7.00
2022-11-21T14:13:49.988Z,8.30
2022-11-21T14:15:04.558Z,7.30
2022-11-21T14:16:29.703Z,6.50
2022-11-21T14:17:41.745Z,7.20
2022-11-21T14:18:47.205Z,6.90
2022-11-21T14:19:52.958Z,7.20
2022-11-21T14:20:58.102Z,8.80
2022-11-21T14:22:00.559Z,8.40
2022-11-21T14:23:05.689Z,7.70
2022-11-21T14:24:14.056Z,7.30
2022-11-21T14:25:22.149Z,7.50
2022-11-21T14:26:26.593Z,7.90
2022-11-21T14:27:31.850Z,8.00
2022-11-21T14:28:34.810Z,5.80
2022-11-21T14:29:40.496Z,8.60
2022-11-21T14:30:44.163Z,8.90
2022-11-21T14:31:47.572Z,8.30
2022-11-21T14:32:54.122Z,8.10
2022-11-21T14:33:57.898Z,7.50
2022-11-21T14:35:09.565Z,7.50
2022-11-21T14:36:25.873Z,5.70
2022-11-21T14:37:27.794Z,5.90
2022-11-21T14:38:36.964Z,7.00
2022-11-21T14:39:44.063Z,6.40
2022-11-21T14:40:44.353Z,7.00
2022-11-21T14:41:52.047Z,5.20
2022-11-21T14:42:54.479Z,4.20
2022-11-21T14:44:02.350Z,5.50
2022-11-21T14:45:18.929Z,7.10
2022-11-21T14:46:20.850Z,6.10
2022-11-21T14:47:26.334Z,6.89
2022-11-21T14:48:28.973Z,7.30
2022-11-21T14:49:31.188Z,6.80
2022-11-21T14:50:35.915Z,7.30
2022-11-21T14:51:39.956Z,6.20
2022-11-21T14:52:41.996Z,6.90
2022-11-21T14:53:45.001Z,6.60
2022-11-21T14:56:03.463Z,6.00
2022-11-21T14:57:10.630Z,5.80
2022-11-21T14:58:16.161Z,5.70
2022-11-21T14:59:27.496Z,4.80
2022-11-21T15:01:34.942Z,4.20
2022-11-21T15:02:37.252Z,5.44
2022-11-21T15:03:41.262Z,7.00
2022-11-21T15:04:44.393Z,8.00
2022-11-21T15:06:52.055Z,4.90
2022-11-21T15:08:10.476Z,5.10
2022-11-21T15:10:25.084Z,5.50
2022-11-21T15:10:36.128Z,7.80
2022-11-21T15:11:12.381Z,7.60
2022-11-21T15:12:33.927Z,6.30
2022-11-21T15:13:58.477Z,3.00
2022-11-21T15:15:00.739Z,6.30
2022-11-21T15:16:04.827Z,5.30
2022-11-21T15:17:10.350Z,6.30
2022-11-21T15:18:27.603Z,5.90
2022-11-21T15:19:22.724Z,6.20
2022-11-21T15:20:27.390Z,3.80
2022-11-21T15:21:30.030Z,5.70
2022-11-21T15:22:37.914Z,5.60
2022-11-21T15:23:39.916Z,4.50
2022-11-21T15:24:44.315Z,4.33
2022-11-21T15:25:47.224Z,5.80
2022-11-21T15:26:50.126Z,5.10
2022-11-21T15:28:04.836Z,3.90
2022-11-21T15:29:11.321Z,4.90
2022-11-21T15:30:30.736Z,6.70
2022-11-21T15:31:32.669Z,7.70
2022-11-21T15:32:54.815Z,4.78
2022-11-21T15:35:31.936Z,4.50
2022-11-21T15:36:33.545Z,3.30
2022-11-21T15:37:35.658Z,17.70
2022-11-21T15:38:43.339Z,5.10
2022-11-21T15:39:48.767Z,5.60
2022-11-21T15:41:06.816Z,4.40
2022-11-21T15:42:29.391Z,5.50
2022-11-21T15:43:46.021Z,6.40
2022-11-21T15:45:02.696Z,5.50
2022-11-21T15:46:11.406Z,6.50
2022-11-21T15:47:14.059Z,5.10
2022-11-21T15:48:15.874Z,6.90
2022-11-21T15:49:33.727Z,9.56
2022-11-21T15:50:23.402Z,4.50
2022-11-21T15:51:59.655Z,5.30
2022-11-21T15:52:35.354Z,4.80
2022-11-21T15:53:38.169Z,4.90
2022-11-21T15:54:39.974Z,5.10
2022-11-21T15:55:41.694Z,5.78
2022-11-21T15:56:43.918Z,3.89
2022-11-21T15:57:15.342Z,3.40
2022-11-21T15:57:46.987Z,5.20
2022-11-21T15:58:49.384Z,4.80
2022-11-21T15:59:51.152Z,4.80
2022-11-21T16:00:53.019Z,3.44
2022-11-21T16:01:55.516Z,4.56
2022-11-21T16:02:57.305Z,4.70
2022-11-21T16:04:01.075Z,5.44
2022-11-21T16:05:03.538Z,2.20
2022-11-21T16:06:07.735Z,4.50
2022-11-21T16:07:09.732Z,4.70
2022-11-21T16:08:11.550Z,4.30
2022-11-21T16:09:13.512Z,5.44
2022-11-21T16:10:21.328Z,4.50
2022-11-21T16:11:33.100Z,4.80
2022-11-21T16:12:35.828Z,5.90
2022-11-21T16:13:38.098Z,4.40
2022-11-21T16:14:40.319Z,4.60
2022-11-21T16:15:42.116Z,3.90
2022-11-21T16:16:44.348Z,5.89
2022-11-21T16:17:47.710Z,5.40
2022-11-21T16:18:50.222Z,7.90
2022-11-21T16:19:52.103Z,5.60
2022-11-21T16:21:07.016Z,6.90
2022-11-21T16:22:09.548Z,4.30
2022-11-21T16:23:12.864Z,6.00
2022-11-21T16:24:14.823Z,5.80
2022-11-21T16:25:16.749Z,4.22
2022-11-21T16:26:19.101Z,3.89
2022-11-21T16:27:21.907Z,3.90
2022-11-21T16:28:24.381Z,3.27
2022-11-21T16:29:26.713Z,4.00
2022-11-21T16:30:29.579Z,4.10
2022-11-21T16:31:32.899Z,3.10
2022-11-21T16:32:35.093Z,2.70
2022-11-21T16:33:39.260Z,3.60
2022-11-21T16:34:41.046Z,4.20
2022-11-21T16:35:43.893Z,4.22
2022-11-21T16:36:46.952Z,4.20
2022-11-21T16:37:49.313Z,3.09
2022-11-21T16:38:51.403Z,3.30
2022-11-21T16:39:53.219Z,3.20
2022-11-21T16:40:59.105Z,4.40
2022-11-21T16:42:01.007Z,4.50
2022-11-21T16:43:11.134Z,3.78
2022-11-21T16:44:15.089Z,2.90
2022-11-21T16:45:17.624Z,2.90
2022-11-21T16:46:22.118Z,4.10
2022-11-21T16:47:24.187Z,5.70
2022-11-21T16:48:29.545Z,2.90
2022-11-21T16:49:32.615Z,3.50
2022-11-21T16:50:34.604Z,4.27
2022-11-21T16:51:36.335Z,3.56
2022-11-21T16:52:38.055Z,3.56
2022-11-21T16:53:41.501Z,3.67
2022-11-21T16:54:43.752Z,3.20
2022-11-21T16:55:45.767Z,3.50
2022-11-21T16:56:48.108Z,1.33
2022-11-21T16:57:50.419Z,4.40
2022-11-21T16:58:53.572Z,5.10
2022-11-21T16:59:57.781Z,3.90
2022-11-21T17:01:14.509Z,4.00
2022-11-21T17:02:18.620Z,4.40
2022-11-21T17:03:20.500Z,5.60
2022-11-21T17:04:22.364Z,7.00
2022-11-21T17:05:24.577Z,5.33
2022-11-21T17:06:29.249Z,7.20
2022-11-21T17:07:31.986Z,7.40
2022-11-21T17:08:35.709Z,8.50
2022-11-21T17:09:37.562Z,9.00
2022-11-21T17:10:40.026Z,4.67
2022-11-21T17:11:42.286Z,7.10
2022-11-21T17:12:44.964Z,8.30
2022-11-21T17:13:48.422Z,5.36
2022-11-21T17:14:50.862Z,6.40